sensor_id;sensor_type;location;lat;lon;timestamp;temperature;humidity
32428;DHT22;18882;50.952;4.366;2023-12-20T00:40:58;6.40;99.90
32428;DHT22;18882;50.952;4.366;2023-12-20T00:44:29;6.40;99.90
32428;DHT22;18882;50.952;4.366;2023-12-20T00:51:13;6.50;99.90
32428;DHT22;18882;50.952;4.366;2023-12-20T00:58:09;6.40;99.90
32428;DHT22;18882;50.952;4.366;2023-12-20T07:40:10;5.60;99.90
32428;DHT22;18882;50.952;4.366;2023-12-20T07:54:19;5.50;99.90
32428;DHT22;18882;50.952;4.366;2023-12-20T08:01:07;5.30;99.90
32428;DHT22;18882;50.952;4.366;2023-12-20T08:15:06;5.40;99.90
32428;DHT22;18882;50.952;4.366;2023-12-20T08:18:53;5.50;99.90
32428;DHT22;18882;50.952;4.366;2023-12-20T08:22:35;5.60;99.90
32428;DHT22;18882;50.952;4.366;2023-12-20T08:53:23;5.90;99.90
32428;DHT22;18882;50.952;4.366;2023-12-20T08:56:51;5.90;99.90
32428;DHT22;18882;50.952;4.366;2023-12-20T09:04:07;5.90;99.90
32428;DHT22;18882;50.952;4.366;2023-12-20T09:11:06;6.00;99.90
32428;DHT22;18882;50.952;4.366;2023-12-20T09:31:54;6.40;99.90
32428;DHT22;18882;50.952;4.366;2023-12-20T09:35:32;6.50;99.90
32428;DHT22;18882;50.952;4.366;2023-12-20T09:39:02;6.60;99.90
32428;DHT22;18882;50.952;4.366;2023-12-20T09:42:48;6.80;99.90
32428;DHT22;18882;50.952;4.366;2023-12-20T09:49:47;7.30;99.90
32428;DHT22;18882;50.952;4.366;2023-12-20T10:02:57;7.40;99.90
32428;DHT22;18882;50.952;4.366;2023-12-20T10:13:28;7.60;99.90
32428;DHT22;18882;50.952;4.366;2023-12-20T10:17:13;7.60;99.90
32428;DHT22;18882;50.952;4.366;2023-12-20T10:20:29;7.70;99.90
32428;DHT22;18882;50.952;4.366;2023-12-20T10:27:34;7.80;99.90
32428;DHT22;18882;50.952;4.366;2023-12-20T10:38:02;8.10;99.90
32428;DHT22;18882;50.952;4.366;2023-12-20T10:44:51;8.10;99.90
32428;DHT22;18882;50.952;4.366;2023-12-20T10:47:51;8.10;99.90
32428;DHT22;18882;50.952;4.366;2023-12-20T10:54:52;8.30;99.90
32428;DHT22;18882;50.952;4.366;2023-12-20T10:58:29;8.40;99.90
32428;DHT22;18882;50.952;4.366;2023-12-20T11:01:59;8.60;99.90
32428;DHT22;18882;50.952;4.366;2023-12-20T11:05:30;8.60;99.90
32428;DHT22;18882;50.952;4.366;2023-12-20T11:12:50;8.60;99.90
32428;DHT22;18882;50.952;4.366;2023-12-20T11:40:33;8.70;99.90
32428;DHT22;18882;50.952;4.366;2023-12-20T11:47:17;8.60;99.90
32428;DHT22;18882;50.952;4.366;2023-12-20T12:00:50;8.70;99.90
32428;DHT22;18882;50.952;4.366;2023-12-20T12:04:07;8.80;99.90
32428;DHT22;18882;50.952;4.366;2023-12-20T12:11:11;8.90;99.90
32428;DHT22;18882;50.952;4.366;2023-12-20T12:18:30;9.00;99.90
32428;DHT22;18882;50.952;4.366;2023-12-20T12:32:16;9.00;99.90
32428;DHT22;18882;50.952;4.366;2023-12-20T12:39:34;9.10;99.90
32428;DHT22;18882;50.952;4.366;2023-12-20T12:50:19;9.20;99.90
32428;DHT22;18882;50.952;4.366;2023-12-20T12:53:54;9.30;99.90
32428;DHT22;18882;50.952;4.366;2023-12-20T12:57:34;9.30;99.90
32428;DHT22;18882;50.952;4.366;2023-12-20T13:00:11;9.40;99.90
32428;DHT22;18882;50.952;4.366;2023-12-20T13:03:15;9.40;99.90
32428;DHT22;18882;50.952;4.366;2023-12-20T13:06:37;9.30;99.90
32428;DHT22;18882;50.952;4.366;2023-12-20T13:09:42;9.30;99.90
32428;DHT22;18882;50.952;4.366;2023-12-20T13:13:10;9.20;99.90
32428;DHT22;18882;50.952;4.366;2023-12-20T13:19:17;9.20;99.90
32428;DHT22;18882;50.952;4.366;2023-12-20T13:22:01;9.20;99.90
32428;DHT22;18882;50.952;4.366;2023-12-20T13:24:51;9.30;99.90
32428;DHT22;18882;50.952;4.366;2023-12-20T13:27:46;9.40;99.90
32428;DHT22;18882;50.952;4.366;2023-12-20T13:30:38;9.40;99.90
32428;DHT22;18882;50.952;4.366;2023-12-20T13:33:26;9.40;99.90
32428;DHT22;18882;50.952;4.366;2023-12-20T13:36:17;9.40;99.90
32428;DHT22;18882;50.952;4.366;2023-12-20T13:39:59;9.40;99.90
32428;DHT22;18882;50.952;4.366;2023-12-20T13:42:56;9.40;99.90
32428;DHT22;18882;50.952;4.366;2023-12-20T13:45:48;9.50;99.90
32428;DHT22;18882;50.952;4.366;2023-12-20T13:48:15;9.50;99.90
32428;DHT22;18882;50.952;4.366;2023-12-20T13:50:44;9.40;99.90
32428;DHT22;18882;50.952;4.366;2023-12-20T13:53:10;9.40;99.90
32428;DHT22;18882;50.952;4.366;2023-12-20T13:55:37;9.30;99.90
32428;DHT22;18882;50.952;4.366;2023-12-20T13:58:03;9.40;99.90
32428;DHT22;18882;50.952;4.366;2023-12-20T14:00:32;9.40;99.90
32428;DHT22;18882;50.952;4.366;2023-12-20T14:03:00;9.40;99.90
32428;DHT22;18882;50.952;4.366;2023-12-20T14:05:29;9.40;99.90
32428;DHT22;18882;50.952;4.366;2023-12-20T14:07:55;9.30;99.90
32428;DHT22;18882;50.952;4.366;2023-12-20T14:10:41;9.30;99.90
32428;DHT22;18882;50.952;4.366;2023-12-20T14:16:52;9.40;99.90
32428;DHT22;18882;50.952;4.366;2023-12-20T14:19:33;9.40;99.90
32428;DHT22;18882;50.952;4.366;2023-12-20T14:22:35;9.50;99.90
32428;DHT22;18882;50.952;4.366;2023-12-20T14:25:46;9.50;99.90
32428;DHT22;18882;50.952;4.366;2023-12-20T14:28:32;9.50;99.90
32428;DHT22;18882;50.952;4.366;2023-12-20T14:31:50;9.50;99.90
32428;DHT22;18882;50.952;4.366;2023-12-20T14:34:52;9.40;99.90
32428;DHT22;18882;50.952;4.366;2023-12-20T14:37:53;9.50;99.90
32428;DHT22;18882;50.952;4.366;2023-12-20T14:40:41;9.60;99.90
32428;DHT22;18882;50.952;4.366;2023-12-20T14:43:41;9.60;99.90
32428;DHT22;18882;50.952;4.366;2023-12-20T14:47:17;9.60;99.90
32428;DHT22;18882;50.952;4.366;2023-12-20T14:50:30;9.60;99.90
32428;DHT22;18882;50.952;4.366;2023-12-20T14:53:45;9.60;99.90
32428;DHT22;18882;50.952;4.366;2023-12-20T14:57:24;9.60;99.90
32428;DHT22;18882;50.952;4.366;2023-12-20T15:00:46;9.60;99.90
32428;DHT22;18882;50.952;4.366;2023-12-20T15:07:12;9.50;99.90
32428;DHT22;18882;50.952;4.366;2023-12-20T15:10:13;9.50;99.90
32428;DHT22;18882;50.952;4.366;2023-12-20T15:17:05;9.60;99.90
32428;DHT22;18882;50.952;4.366;2023-12-20T15:20:40;9.60;99.90
32428;DHT22;18882;50.952;4.366;2023-12-20T15:23:29;9.60;99.90
32428;DHT22;18882;50.952;4.366;2023-12-20T15:30:24;9.60;99.90
32428;DHT22;18882;50.952;4.366;2023-12-20T15:33:39;9.60;99.90
32428;DHT22;18882;50.952;4.366;2023-12-20T15:37:11;9.70;99.90
32428;DHT22;18882;50.952;4.366;2023-12-20T15:40:42;9.80;99.90
32428;DHT22;18882;50.952;4.366;2023-12-20T15:44:10;9.80;99.90
32428;DHT22;18882;50.952;4.366;2023-12-20T15:47:19;9.70;99.90
32428;DHT22;18882;50.952;4.366;2023-12-20T15:50:48;9.70;99.90
32428;DHT22;18882;50.952;4.366;2023-12-20T15:54:12;9.70;99.90
32428;DHT22;18882;50.952;4.366;2023-12-20T15:57:22;9.70;99.90
32428;DHT22;18882;50.952;4.366;2023-12-20T16:00:24;9.70;99.90
32428;DHT22;18882;50.952;4.366;2023-12-20T16:03:24;9.70;99.90
32428;DHT22;18882;50.952;4.366;2023-12-20T16:13:49;9.70;99.90
32428;DHT22;18882;50.952;4.366;2023-12-20T16:17:38;9.70;99.90
32428;DHT22;18882;50.952;4.366;2023-12-20T16:20:30;9.70;99.90
32428;DHT22;18882;50.952;4.366;2023-12-20T16:23:00;9.70;99.90
32428;DHT22;18882;50.952;4.366;2023-12-20T16:25:35;9.70;99.90
32428;DHT22;18882;50.952;4.366;2023-12-20T16:28:15;9.70;99.90
32428;DHT22;18882;50.952;4.366;2023-12-20T16:30:46;9.70;99.90
32428;DHT22;18882;50.952;4.366;2023-12-20T16:33:13;9.60;99.90
32428;DHT22;18882;50.952;4.366;2023-12-20T16:35:40;9.60;99.90
32428;DHT22;18882;50.952;4.366;2023-12-20T16:38:10;9.70;99.90
32428;DHT22;18882;50.952;4.366;2023-12-20T16:40:36;9.70;99.90
32428;DHT22;18882;50.952;4.366;2023-12-20T16:43:07;9.70;99.90
32428;DHT22;18882;50.952;4.366;2023-12-20T16:45:35;9.70;99.90
32428;DHT22;18882;50.952;4.366;2023-12-20T16:48:04;9.60;99.90
32428;DHT22;18882;50.952;4.366;2023-12-20T16:50:40;9.60;99.90
32428;DHT22;18882;50.952;4.366;2023-12-20T16:57:13;9.50;99.90
32428;DHT22;18882;50.952;4.366;2023-12-20T17:00:45;9.50;99.90
32428;DHT22;18882;50.952;4.366;2023-12-20T17:03:47;9.40;99.90
32428;DHT22;18882;50.952;4.366;2023-12-20T17:07:22;9.40;99.90
32428;DHT22;18882;50.952;4.366;2023-12-20T17:10:45;9.40;99.90
32428;DHT22;18882;50.952;4.366;2023-12-20T17:13:55;9.30;99.90
32428;DHT22;18882;50.952;4.366;2023-12-20T17:20:05;9.30;99.90
32428;DHT22;18882;50.952;4.366;2023-12-20T17:23:29;9.40;99.90
32428;DHT22;18882;50.952;4.366;2023-12-20T17:26:43;9.40;99.90
32428;DHT22;18882;50.952;4.366;2023-12-20T17:30:17;9.40;99.90
32428;DHT22;18882;50.952;4.366;2023-12-20T17:33:50;9.40;99.90
32428;DHT22;18882;50.952;4.366;2023-12-20T17:37:30;9.40;99.90
32428;DHT22;18882;50.952;4.366;2023-12-20T17:40:55;9.40;99.90
32428;DHT22;18882;50.952;4.366;2023-12-20T17:47:39;9.40;99.90
32428;DHT22;18882;50.952;4.366;2023-12-20T17:50:57;9.30;99.90
32428;DHT22;18882;50.952;4.366;2023-12-20T17:58:22;9.40;99.90
32428;DHT22;18882;50.952;4.366;2023-12-20T18:00:53;9.40;99.90
32428;DHT22;18882;50.952;4.366;2023-12-20T18:03:24;9.40;99.90
32428;DHT22;18882;50.952;4.366;2023-12-20T18:05:51;9.50;99.90
32428;DHT22;18882;50.952;4.366;2023-12-20T18:08:29;9.40;99.90
32428;DHT22;18882;50.952;4.366;2023-12-20T18:11:01;9.40;99.90
32428;DHT22;18882;50.952;4.366;2023-12-20T18:13:33;9.40;99.90
32428;DHT22;18882;50.952;4.366;2023-12-20T18:16:01;9.40;99.90
32428;DHT22;18882;50.952;4.366;2023-12-20T18:18:29;9.30;99.90
32428;DHT22;18882;50.952;4.366;2023-12-20T18:21:02;9.30;99.90
32428;DHT22;18882;50.952;4.366;2023-12-20T18:23:32;9.30;99.90
32428;DHT22;18882;50.952;4.366;2023-12-20T18:25:59;9.30;99.90
32428;DHT22;18882;50.952;4.366;2023-12-20T18:28:34;9.20;99.90
32428;DHT22;18882;50.952;4.366;2023-12-20T18:31:26;9.20;99.90
32428;DHT22;18882;50.952;4.366;2023-12-20T18:33:54;9.20;99.90
32428;DHT22;18882;50.952;4.366;2023-12-20T18:36:23;9.20;99.90
32428;DHT22;18882;50.952;4.366;2023-12-20T18:38:49;9.20;99.90
32428;DHT22;18882;50.952;4.366;2023-12-20T18:41:16;9.10;99.90
32428;DHT22;18882;50.952;4.366;2023-12-20T18:43:47;9.10;99.90
32428;DHT22;18882;50.952;4.366;2023-12-20T18:46:23;9.20;99.90
32428;DHT22;18882;50.952;4.366;2023-12-20T18:49:30;9.20;99.90
32428;DHT22;18882;50.952;4.366;2023-12-20T18:52:40;9.20;99.90
32428;DHT22;18882;50.952;4.366;2023-12-20T18:55:29;9.30;99.90
32428;DHT22;18882;50.952;4.366;2023-12-20T18:57:56;9.30;99.90
32428;DHT22;18882;50.952;4.366;2023-12-20T19:00:46;9.20;99.90
32428;DHT22;18882;50.952;4.366;2023-12-20T19:03:22;9.20;99.90
32428;DHT22;18882;50.952;4.366;2023-12-20T19:06:00;9.20;99.90
32428;DHT22;18882;50.952;4.366;2023-12-20T19:08:42;9.20;99.90
32428;DHT22;18882;50.952;4.366;2023-12-20T19:11:16;9.20;99.90
32428;DHT22;18882;50.952;4.366;2023-12-20T19:13:46;9.10;99.90
32428;DHT22;18882;50.952;4.366;2023-12-20T19:16:14;9.20;99.90
32428;DHT22;18882;50.952;4.366;2023-12-20T19:18:46;9.20;99.90
32428;DHT22;18882;50.952;4.366;2023-12-20T19:21:12;9.20;99.90
32428;DHT22;18882;50.952;4.366;2023-12-20T19:23:51;9.30;99.90
32428;DHT22;18882;50.952;4.366;2023-12-20T19:26:20;9.30;99.90
32428;DHT22;18882;50.952;4.366;2023-12-20T19:28:51;9.40;99.90
32428;DHT22;18882;50.952;4.366;2023-12-20T19:32:03;9.40;99.90
32428;DHT22;18882;50.952;4.366;2023-12-20T19:34:37;9.40;99.90
32428;DHT22;18882;50.952;4.366;2023-12-20T19:37:17;9.40;99.90
32428;DHT22;18882;50.952;4.366;2023-12-20T19:40:04;9.40;99.90
32428;DHT22;18882;50.952;4.366;2023-12-20T19:47:30;9.40;99.90
32428;DHT22;18882;50.952;4.366;2023-12-20T19:50:53;9.50;99.90
32428;DHT22;18882;50.952;4.366;2023-12-20T19:54:01;9.50;99.90
32428;DHT22;18882;50.952;4.366;2023-12-20T20:00:58;9.60;99.90
32428;DHT22;18882;50.952;4.366;2023-12-20T20:11:42;9.50;99.90
32428;DHT22;18882;50.952;4.366;2023-12-20T20:21:58;9.60;99.90
32428;DHT22;18882;50.952;4.366;2023-12-20T20:25:23;9.70;99.90
32428;DHT22;18882;50.952;4.366;2023-12-20T20:29:02;9.80;99.90
32428;DHT22;18882;50.952;4.366;2023-12-20T20:32:13;9.90;99.90
32428;DHT22;18882;50.952;4.366;2023-12-20T20:35:11;9.90;99.90
32428;DHT22;18882;50.952;4.366;2023-12-20T20:43:38;10.00;99.90
32428;DHT22;18882;50.952;4.366;2023-12-20T20:47:07;10.00;99.90
32428;DHT22;18882;50.952;4.366;2023-12-20T20:50:33;10.00;99.90
32428;DHT22;18882;50.952;4.366;2023-12-20T20:54:02;9.90;99.90
32428;DHT22;18882;50.952;4.366;2023-12-20T20:56:50;10.00;99.90
32428;DHT22;18882;50.952;4.366;2023-12-20T21:07:06;10.10;99.90
32428;DHT22;18882;50.952;4.366;2023-12-20T21:10:25;10.10;99.90
32428;DHT22;18882;50.952;4.366;2023-12-20T21:23:28;10.20;99.90
32428;DHT22;18882;50.952;4.366;2023-12-20T21:26:19;10.20;99.90
32428;DHT22;18882;50.952;4.366;2023-12-20T21:29:49;10.20;99.90
32428;DHT22;18882;50.952;4.366;2023-12-20T21:33:35;10.30;99.90
32428;DHT22;18882;50.952;4.366;2023-12-20T21:36:58;10.20;99.90
32428;DHT22;18882;50.952;4.366;2023-12-20T21:40:26;10.20;99.90
32428;DHT22;18882;50.952;4.366;2023-12-20T21:43:44;10.20;99.90
32428;DHT22;18882;50.952;4.366;2023-12-20T21:47:00;10.10;99.90
32428;DHT22;18882;50.952;4.366;2023-12-20T21:49:55;10.10;99.90
32428;DHT22;18882;50.952;4.366;2023-12-20T21:53:30;10.10;99.90
32428;DHT22;18882;50.952;4.366;2023-12-20T21:56:49;10.10;99.90
32428;DHT22;18882;50.952;4.366;2023-12-20T22:00:27;10.20;99.90
32428;DHT22;18882;50.952;4.366;2023-12-20T22:04:04;10.30;99.90
32428;DHT22;18882;50.952;4.366;2023-12-20T22:07:32;10.30;99.90
32428;DHT22;18882;50.952;4.366;2023-12-20T22:10:38;10.30;99.90
32428;DHT22;18882;50.952;4.366;2023-12-20T22:14:05;10.40;99.90
32428;DHT22;18882;50.952;4.366;2023-12-20T22:17:16;10.50;99.90
32428;DHT22;18882;50.952;4.366;2023-12-20T22:20:34;10.60;99.90
32428;DHT22;18882;50.952;4.366;2023-12-20T22:24:01;10.60;99.90
32428;DHT22;18882;50.952;4.366;2023-12-20T22:27:08;10.60;99.90
32428;DHT22;18882;50.952;4.366;2023-12-20T22:30:40;10.60;99.90
32428;DHT22;18882;50.952;4.366;2023-12-20T22:33:32;10.60;99.90
32428;DHT22;18882;50.952;4.366;2023-12-20T22:37:17;10.60;99.90
32428;DHT22;18882;50.952;4.366;2023-12-20T22:43:40;10.60;99.90
32428;DHT22;18882;50.952;4.366;2023-12-20T22:46:57;10.60;99.90
32428;DHT22;18882;50.952;4.366;2023-12-20T22:50:37;10.50;99.90
32428;DHT22;18882;50.952;4.366;2023-12-20T22:53:48;10.50;99.90
32428;DHT22;18882;50.952;4.366;2023-12-20T23:00:02;10.50;99.90
32428;DHT22;18882;50.952;4.366;2023-12-20T23:02:55;10.60;99.90
32428;DHT22;18882;50.952;4.366;2023-12-20T23:06:13;10.60;99.90
32428;DHT22;18882;50.952;4.366;2023-12-20T23:09:42;10.70;99.90
32428;DHT22;18882;50.952;4.366;2023-12-20T23:12:46;10.70;99.90
32428;DHT22;18882;50.952;4.366;2023-12-20T23:15:34;10.60;99.90
32428;DHT22;18882;50.952;4.366;2023-12-20T23:18:52;10.60;99.90
32428;DHT22;18882;50.952;4.366;2023-12-20T23:21:23;10.60;99.90
32428;DHT22;18882;50.952;4.366;2023-12-20T23:24:17;10.70;99.90
32428;DHT22;18882;50.952;4.366;2023-12-20T23:27:11;10.70;99.90
32428;DHT22;18882;50.952;4.366;2023-12-20T23:30:35;10.70;99.90
32428;DHT22;18882;50.952;4.366;2023-12-20T23:33:54;10.70;99.90
32428;DHT22;18882;50.952;4.366;2023-12-20T23:36:59;10.70;99.90
32428;DHT22;18882;50.952;4.366;2023-12-20T23:40:06;10.60;99.90
32428;DHT22;18882;50.952;4.366;2023-12-20T23:43:29;10.70;99.90
32428;DHT22;18882;50.952;4.366;2023-12-20T23:46:35;10.60;99.90
32428;DHT22;18882;50.952;4.366;2023-12-20T23:49:53;10.60;99.90
32428;DHT22;18882;50.952;4.366;2023-12-20T23:53:28;10.60;99.90
32428;DHT22;18882;50.952;4.366;2023-12-20T23:56:31;10.50;99.90
32428;DHT22;18882;50.952;4.366;2023-12-20T23:58:58;10.50;99.90
